Time;durP1;ratioP1;P1;durP2;ratioP2;P2;SDS_P1;SDS_P2;PMS_P1;PMS_P2;Temp;Humidity;BMP_temperature;BMP_pressure;BME280_temperature;BME280_humidity;BME280_pressure;Samples;Min_cycle;Max_cycle;Signal;HPM_P1;HPM_P2
2022/07/11 00:02:05;;;;;;;8.60;4.68;;;15.60;99.90;;;;;;5094114;28;20252;-70
2022/07/11 00:04:33;;;;;;;9.18;4.72;;;15.60;99.90;;;;;;5093030;28;20177;-70
2022/07/11 00:06:59;;;;;;;8.30;4.82;;;15.70;99.90;;;;;;5094189;28;20201;-71
2022/07/11 00:09:25;;;;;;;6.30;4.55;;;15.70;99.90;;;;;;5093896;28;20192;-71
2022/07/11 00:11:51;;;;;;;9.73;4.72;;;15.60;99.90;;;;;;5093570;28;20175;-70
2022/07/11 00:14:18;;;;;;;5.68;4.13;;;15.60;99.90;;;;;;5094265;28;20553;-70
2022/07/11 00:16:43;;;;;;;5.97;4.63;;;15.70;99.90;;;;;;5094317;28;20630;-72
2022/07/11 00:19:10;;;;;;;7.88;4.90;;;15.60;99.90;;;;;;5093855;28;20256;-70
2022/07/11 00:21:36;;;;;;;5.18;4.45;;;15.60;99.90;;;;;;5094031;28;20524;-70
2022/07/11 00:24:07;;;;;;;6.60;4.45;;;15.70;99.90;;;;;;5094034;28;20219;-70
2022/07/11 00:26:36;;;;;;;7.60;4.60;;;15.60;99.90;;;;;;5093767;28;20650;-70
2022/07/11 00:29:02;;;;;;;6.72;4.38;;;15.70;99.90;;;;;;5093743;28;20193;-70
2022/07/11 00:31:28;;;;;;;6.90;4.43;;;15.70;99.90;;;;;;5092589;28;20207;-71
2022/07/11 00:33:54;;;;;;;8.23;4.80;;;15.70;99.90;;;;;;5093880;28;20177;-70
2022/07/11 00:36:20;;;;;;;5.70;4.47;;;15.70;99.90;;;;;;5094232;28;20166;-70
2022/07/11 00:38:47;;;;;;;9.02;4.50;;;15.60;99.90;;;;;;5094156;28;20189;-70
2022/07/11 00:41:12;;;;;;;7.15;4.28;;;15.70;99.90;;;;;;5093858;28;20214;-70
2022/07/11 00:43:39;;;;;;;5.97;4.30;;;15.60;99.90;;;;;;5093874;28;20626;-70
2022/07/11 00:46:07;;;;;;;6.45;4.55;;;15.60;99.90;;;;;;5093715;28;20207;-70
2022/07/11 00:48:32;;;;;;;7.30;5.25;;;15.60;99.90;;;;;;5093698;28;20169;-70
2022/07/11 00:50:59;;;;;;;9.98;5.55;;;15.60;99.90;;;;;;5093773;28;20535;-70
2022/07/11 00:53:25;;;;;;;6.93;5.15;;;15.60;99.90;;;;;;5093921;28;20534;-70
2022/07/11 00:55:52;;;;;;;6.57;4.18;;;15.60;99.90;;;;;;5093929;28;20252;-70
2022/07/11 00:58:19;;;;;;;8.15;4.53;;;15.60;99.90;;;;;;5093257;28;20180;-70
2022/07/11 01:00:45;;;;;;;7.20;4.53;;;15.60;99.90;;;;;;5093979;28;20226;-70
2022/07/11 01:03:11;;;;;;;4.85;4.20;;;15.60;99.90;;;;;;5094143;28;20572;-71
2022/07/11 01:05:37;;;;;;;5.47;4.03;;;15.60;99.90;;;;;;5092315;28;20181;-70
2022/07/11 01:08:03;;;;;;;5.60;4.60;;;15.50;99.90;;;;;;5093960;28;20227;-70
2022/07/11 01:10:28;;;;;;;7.68;4.13;;;15.50;99.90;;;;;;5092292;28;20620;-70
2022/07/11 01:12:55;;;;;;;6.88;4.30;;;15.50;99.90;;;;;;5093310;28;20201;-70
2022/07/11 01:15:21;;;;;;;5.00;3.65;;;15.40;99.90;;;;;;5093358;28;20161;-72
2022/07/11 01:17:47;;;;;;;7.90;4.57;;;15.40;99.90;;;;;;5093350;28;20193;-71
2022/07/11 01:20:12;;;;;;;4.78;4.05;;;15.40;99.90;;;;;;5093468;28;20208;-70
2022/07/11 01:22:51;;;;;;;8.40;4.63;;;15.30;99.90;;;;;;5095335;28;20214;-70
2022/07/11 01:25:38;;;;;;;6.00;4.57;;;15.30;99.90;;;;;;5095823;28;20211;-71
2022/07/11 01:28:06;;;;;;;7.15;4.75;;;15.30;99.90;;;;;;5096646;28;20217;-70
2022/07/11 01:30:33;;;;;;;5.70;4.45;;;15.30;99.90;;;;;;5095656;28;20565;-70
2022/07/11 01:32:59;;;;;;;5.13;4.07;;;15.30;99.90;;;;;;5097176;28;20170;-70
2022/07/11 01:35:26;;;;;;;6.65;4.38;;;15.30;99.90;;;;;;5097091;28;20263;-70
2022/07/11 01:37:52;;;;;;;7.30;4.30;;;15.30;99.90;;;;;;5096932;28;20169;-70
2022/07/11 01:40:18;;;;;;;7.10;4.80;;;15.30;99.90;;;;;;5096976;28;20204;-70
2022/07/11 01:42:43;;;;;;;5.30;3.88;;;15.30;99.90;;;;;;5096533;28;20209;-70
2022/07/11 01:45:11;;;;;;;6.47;4.65;;;15.40;99.90;;;;;;5096809;28;20201;-70
2022/07/11 01:47:37;;;;;;;8.00;4.55;;;15.40;99.90;;;;;;5096880;28;20730;-70
2022/07/11 01:50:03;;;;;;;5.63;4.90;;;15.40;99.90;;;;;;5096533;28;20284;-70
2022/07/11 01:52:29;;;;;;;7.78;4.35;;;15.30;99.90;;;;;;5096662;28;20215;-70
2022/07/11 01:54:55;;;;;;;9.45;5.13;;;15.30;99.90;;;;;;5096709;28;20169;-70
2022/07/11 01:57:21;;;;;;;6.65;4.25;;;15.30;99.90;;;;;;5096860;28;20169;-70
2022/07/11 01:59:47;;;;;;;6.53;5.10;;;15.40;99.90;;;;;;5097099;28;20605;-70
2022/07/11 02:02:13;;;;;;;7.55;4.68;;;15.30;99.90;;;;;;5096424;28;20169;-70
2022/07/11 02:04:40;;;;;;;6.82;5.10;;;15.30;99.90;;;;;;5096410;28;20169;-70
2022/07/11 02:07:06;;;;;;;9.18;4.88;;;15.40;99.90;;;;;;5096222;28;20227;-70
2022/07/11 02:09:32;;;;;;;6.05;4.65;;;15.30;99.90;;;;;;5095007;28;20195;-70
2022/07/11 02:11:57;;;;;;;9.57;5.63;;;15.30;99.90;;;;;;5096234;28;20543;-71
2022/07/11 02:14:23;;;;;;;7.45;5.28;;;15.30;99.90;;;;;;5095047;28;20256;-70
2022/07/11 02:16:49;;;;;;;11.77;5.47;;;15.30;99.90;;;;;;5096161;28;20659;-70
2022/07/11 02:19:15;;;;;;;9.55;5.82;;;15.30;99.90;;;;;;5096097;28;20335;-70
2022/07/11 02:21:41;;;;;;;7.70;5.35;;;15.30;99.90;;;;;;5094743;28;20185;-71
2022/07/11 02:24:08;;;;;;;5.93;4.88;;;15.30;99.90;;;;;;5096663;28;20538;-70
2022/07/11 02:26:34;;;;;;;9.15;5.07;;;15.30;99.90;;;;;;5096167;28;20584;-70
2022/07/11 02:29:00;;;;;;;8.95;5.20;;;15.40;99.90;;;;;;5094533;28;20798;-70
2022/07/11 02:31:26;;;;;;;7.15;5.50;;;15.40;99.90;;;;;;5095723;28;20191;-68
2022/07/11 02:33:51;;;;;;;7.45;5.05;;;15.30;99.90;;;;;;5096135;28;20176;-68
2022/07/11 02:36:17;;;;;;;8.77;5.60;;;15.40;99.90;;;;;;5095667;28;20227;-68
2022/07/11 02:38:43;;;;;;;8.57;5.22;;;15.30;99.90;;;;;;5095795;28;20233;-68
2022/07/11 02:41:09;;;;;;;10.93;5.38;;;15.40;99.90;;;;;;5095642;28;20200;-68
2022/07/11 02:43:34;;;;;;;8.50;5.18;;;15.40;99.90;;;;;;5095292;28;20189;-68
2022/07/11 02:46:01;;;;;;;9.52;5.05;;;15.40;99.90;;;;;;5095563;28;20542;-68
2022/07/11 02:48:27;;;;;;;7.25;5.15;;;15.50;99.90;;;;;;5095315;28;20208;-68
2022/07/11 02:50:53;;;;;;;7.25;5.07;;;15.50;99.90;;;;;;5094221;28;20533;-68
2022/07/11 02:53:19;;;;;;;6.05;4.85;;;15.50;99.90;;;;;;5095465;28;20673;-68
2022/07/11 02:55:45;;;;;;;10.73;5.13;;;15.50;99.90;;;;;;5095305;28;20311;-68
2022/07/11 02:58:11;;;;;;;13.45;5.30;;;15.60;99.90;;;;;;5094883;28;20253;-68
2022/07/11 03:00:37;;;;;;;8.65;5.05;;;15.50;99.90;;;;;;5094023;28;20374;-68
2022/07/11 03:03:03;;;;;;;7.68;5.18;;;15.50;99.90;;;;;;5095405;28;20190;-68
2022/07/11 03:05:29;;;;;;;10.73;5.15;;;15.50;99.90;;;;;;5095394;28;20646;-68
2022/07/11 03:07:55;;;;;;;9.00;5.63;;;15.50;99.90;;;;;;5095320;28;20245;-68
2022/07/11 03:10:23;;;;;;;14.10;5.78;;;15.50;99.90;;;;;;5094988;28;20204;-68
2022/07/11 03:12:49;;;;;;;9.27;5.07;;;15.50;99.90;;;;;;5094723;28;20252;-68
2022/07/11 03:15:15;;;;;;;8.38;5.35;;;15.50;99.90;;;;;;5095073;28;20169;-69
2022/07/11 03:17:41;;;;;;;9.13;5.15;;;15.50;99.90;;;;;;5094815;28;20301;-68
2022/07/11 03:20:07;;;;;;;8.75;5.38;;;15.50;99.90;;;;;;5094797;28;20205;-68
2022/07/11 03:22:33;;;;;;;7.57;5.68;;;15.50;99.90;;;;;;5094838;28;20169;-68
2022/07/11 03:25:05;;;;;;;10.77;6.28;;;15.50;99.90;;;;;;5095120;28;20649;-68
2022/07/11 03:27:31;;;;;;;11.63;5.45;;;15.50;99.90;;;;;;5094999;28;20185;-69
2022/07/11 03:29:57;;;;;;;12.75;6.50;;;15.60;99.90;;;;;;5095080;28;20189;-69
2022/07/11 03:32:23;;;;;;;9.32;5.15;;;15.60;99.90;;;;;;5094812;28;20501;-69
2022/07/11 03:37:34;;;;;;;10.90;5.55;;;15.60;99.90;;;;;;5096407;28;20184;-69
2022/07/11 03:39:59;;;;;;;9.63;5.40;;;15.60;99.90;;;;;;5097880;28;20645;-69
2022/07/11 03:42:26;;;;;;;6.65;5.18;;;15.60;99.90;;;;;;5097397;28;20184;-70
2022/07/11 03:44:52;;;;;;;9.75;5.05;;;15.60;99.90;;;;;;5095783;28;20180;-68
2022/07/11 03:47:18;;;;;;;9.55;5.45;;;15.70;99.90;;;;;;5093343;28;20208;-69
2022/07/11 03:49:44;;;;;;;11.18;5.85;;;15.70;99.90;;;;;;5094289;28;20275;-67
2022/07/11 03:52:10;;;;;;;10.82;5.53;;;15.70;99.90;;;;;;5094555;28;20169;-67
2022/07/11 03:54:36;;;;;;;11.27;5.57;;;15.70;99.90;;;;;;5096326;28;20519;-67
2022/07/11 03:57:02;;;;;;;9.23;5.35;;;15.70;99.90;;;;;;5092495;28;20598;-67
2022/07/11 03:59:28;;;;;;;9.18;5.82;;;15.70;99.90;;;;;;5092800;28;20200;-67
2022/07/11 04:01:54;;;;;;;6.43;5.28;;;15.70;99.90;;;;;;5094780;28;20231;-69
2022/07/11 04:04:19;;;;;;;9.40;5.78;;;15.70;99.90;;;;;;5094497;28;20305;-70
2022/07/11 04:06:45;;;;;;;12.38;5.65;;;15.70;99.90;;;;;;5092936;28;20212;-71
2022/07/11 04:09:11;;;;;;;11.15;6.07;;;15.70;99.90;;;;;;5092984;28;20211;-70
2022/07/11 04:11:37;;;;;;;11.40;6.07;;;15.70;99.90;;;;;;5094171;28;20172;-70
2022/07/11 04:14:03;;;;;;;8.27;5.75;;;15.70;99.90;;;;;;5094170;28;20177;-70
2022/07/11 04:16:28;;;;;;;6.88;5.57;;;15.70;99.90;;;;;;5093940;28;20173;-71
2022/07/11 04:18:54;;;;;;;8.50;5.57;;;15.70;99.90;;;;;;5094195;28;20205;-71
2022/07/11 04:21:20;;;;;;;9.70;5.07;;;15.70;99.90;;;;;;5094468;28;20580;-70
2022/07/11 04:23:46;;;;;;;13.15;6.22;;;15.70;99.90;;;;;;5094485;28;20256;-70
2022/07/11 04:26:11;;;;;;;8.60;6.05;;;15.70;99.90;;;;;;5092625;28;20181;-71
2022/07/11 04:28:37;;;;;;;8.00;5.38;;;15.70;99.90;;;;;;5093623;28;20197;-71
2022/07/11 04:31:03;;;;;;;10.88;5.65;;;15.80;99.90;;;;;;5094212;28;20221;-70
2022/07/11 04:33:29;;;;;;;6.95;5.50;;;15.70;99.90;;;;;;5093878;28;20173;-71
2022/07/11 04:35:55;;;;;;;14.73;6.53;;;15.80;99.90;;;;;;5093813;28;20583;-71
2022/07/11 04:38:23;;;;;;;13.60;5.88;;;15.80;99.90;;;;;;5094217;28;20177;-70
2022/07/11 04:40:50;;;;;;;9.70;5.35;;;15.80;99.90;;;;;;5093877;28;20180;-71
2022/07/11 04:43:16;;;;;;;7.93;5.45;;;15.80;99.90;;;;;;5092403;28;20184;-71
2022/07/11 04:45:42;;;;;;;11.73;6.00;;;15.80;99.90;;;;;;5092419;28;20188;-70
2022/07/11 04:48:07;;;;;;;11.13;6.50;;;15.80;99.90;;;;;;5093663;28;20201;-70
2022/07/11 04:50:33;;;;;;;10.18;7.05;;;15.80;99.90;;;;;;5092295;28;20208;-70
2022/07/11 04:52:59;;;;;;;13.13;8.52;;;15.80;99.90;;;;;;5093502;28;20176;-71
2022/07/11 04:55:25;;;;;;;14.55;8.02;;;15.80;99.90;;;;;;5092672;28;20252;-70
2022/07/11 04:57:51;;;;;;;12.85;7.63;;;15.80;99.90;;;;;;5095617;28;20179;-71
2022/07/11 05:00:17;;;;;;;10.88;7.07;;;15.80;99.90;;;;;;5097705;28;20614;-70
2022/07/11 05:02:43;;;;;;;10.75;7.28;;;15.80;99.90;;;;;;5097740;28;20173;-73
2022/07/11 05:05:10;;;;;;;11.85;6.78;;;15.80;99.90;;;;;;5097354;28;20195;-71
2022/07/11 05:07:36;;;;;;;11.00;6.78;;;15.80;99.90;;;;;;5097946;28;20561;-70
2022/07/11 05:10:02;;;;;;;9.10;6.53;;;15.90;99.90;;;;;;5096099;28;20696;-70
2022/07/11 05:12:28;;;;;;;10.35;6.40;;;15.90;99.90;;;;;;5095755;28;20188;-71
2022/07/11 05:14:55;;;;;;;13.45;6.60;;;16.00;99.90;;;;;;5095693;28;20169;-70
2022/07/11 05:17:20;;;;;;;9.10;6.45;;;16.00;99.90;;;;;;5096980;28;20181;-70
2022/07/11 05:19:46;;;;;;;12.50;6.20;;;16.00;99.90;;;;;;5095600;28;20205;-72
2022/07/11 05:22:12;;;;;;;9.68;6.07;;;16.00;99.90;;;;;;5097089;28;20177;-70
2022/07/11 05:24:38;;;;;;;10.32;6.50;;;16.10;99.90;;;;;;5096981;28;20766;-70
2022/07/11 05:27:03;;;;;;;7.60;6.20;;;16.10;99.90;;;;;;5096598;28;20203;-70
2022/07/11 05:29:29;;;;;;;13.73;7.30;;;16.10;99.90;;;;;;5096836;28;20185;-70
2022/07/11 05:31:55;;;;;;;7.10;6.28;;;16.10;99.90;;;;;;5096745;28;20165;-70
2022/07/11 05:34:20;;;;;;;8.32;6.03;;;16.20;99.90;;;;;;5095431;28;20223;-70
2022/07/11 05:36:47;;;;;;;6.72;5.28;;;16.20;99.90;;;;;;5096710;28;20203;-70
2022/07/11 05:39:13;;;;;;;11.43;6.05;;;16.20;99.90;;;;;;5095199;28;20254;-70
2022/07/11 05:41:39;;;;;;;11.23;5.50;;;16.20;99.90;;;;;;5096522;28;20203;-70
2022/07/11 05:44:05;;;;;;;8.25;5.35;;;16.20;99.90;;;;;;5096452;28;20169;-70
2022/07/11 05:46:31;;;;;;;10.45;5.60;;;16.20;99.90;;;;;;5096574;28;20252;-70
2022/07/11 05:48:56;;;;;;;9.80;6.70;;;16.20;99.90;;;;;;5095031;28;20205;-70
2022/07/11 05:51:22;;;;;;;8.88;6.38;;;16.20;99.90;;;;;;5096635;28;20169;-70
2022/07/11 05:53:48;;;;;;;14.38;8.13;;;16.20;99.90;;;;;;5096454;28;20177;-70
2022/07/11 05:56:13;;;;;;;11.10;7.80;;;16.20;99.90;;;;;;5096440;28;20193;-70
2022/07/11 05:58:39;;;;;;;11.27;7.82;;;16.10;99.90;;;;;;5095942;28;20200;-70
2022/07/11 06:01:05;;;;;;;12.05;8.30;;;16.10;99.90;;;;;;5094910;28;20173;-70
2022/07/11 06:03:31;;;;;;;9.57;7.13;;;16.10;99.90;;;;;;5095014;28;20597;-70
2022/07/11 06:05:56;;;;;;;9.02;6.78;;;16.10;99.90;;;;;;5095969;28;20514;-70
2022/07/11 06:08:40;;;;;;;8.60;5.75;;;16.10;99.90;;;;;;5095201;28;20243;-70
2022/07/11 06:11:07;;;;;;;6.65;5.90;;;16.10;99.90;;;;;;5094794;28;20170;-70
2022/07/11 06:13:33;;;;;;;7.85;5.65;;;16.10;99.90;;;;;;5095754;28;20710;-70
2022/07/11 06:15:59;;;;;;;7.03;5.70;;;16.10;99.90;;;;;;5095925;28;20197;-70
2022/07/11 06:18:25;;;;;;;8.45;5.35;;;16.10;99.90;;;;;;5095812;28;20200;-70
2022/07/11 06:20:51;;;;;;;5.97;5.13;;;16.10;99.90;;;;;;5095881;28;20173;-70
2022/07/11 06:23:17;;;;;;;5.57;4.13;;;16.10;99.90;;;;;;5096022;28;20185;-70
2022/07/11 06:25:42;;;;;;;5.88;4.28;;;16.10;99.90;;;;;;5095810;28;20171;-70
2022/07/11 06:28:08;;;;;;;4.68;4.20;;;16.10;99.90;;;;;;5095394;28;20219;-70
2022/07/11 06:30:36;;;;;;;5.22;4.13;;;16.10;99.90;;;;;;5094386;28;20299;-70
2022/07/11 06:33:03;;;;;;;6.13;4.15;;;16.00;99.90;;;;;;5095985;28;20252;-68
2022/07/11 06:35:29;;;;;;;3.90;3.58;;;16.00;99.90;;;;;;5095687;28;20656;-68
2022/07/11 06:37:56;;;;;;;6.25;3.63;;;16.00;99.90;;;;;;5094273;28;20181;-68
2022/07/11 06:40:23;;;;;;;4.55;3.60;;;16.10;99.90;;;;;;5095463;28;20193;-68
2022/07/11 06:42:49;;;;;;;4.88;3.35;;;16.10;99.90;;;;;;5095309;28;20180;-68
2022/07/11 06:45:15;;;;;;;3.38;3.05;;;16.10;99.90;;;;;;5094105;28;20181;-68
2022/07/11 06:47:41;;;;;;;4.63;2.80;;;16.20;99.90;;;;;;5095949;28;20208;-68
2022/07/11 06:50:07;;;;;;;3.55;2.83;;;16.20;99.90;;;;;;5095804;28;20262;-68
2022/07/11 06:52:33;;;;;;;2.60;2.40;;;16.30;99.90;;;;;;5095760;28;20538;-68
2022/07/11 06:54:59;;;;;;;3.42;3.13;;;16.30;99.90;;;;;;5093890;28;20180;-68
2022/07/11 06:57:24;;;;;;;4.63;3.78;;;16.30;99.90;;;;;;5095062;28;20169;-68
2022/07/11 06:59:50;;;;;;;4.05;3.60;;;16.40;99.90;;;;;;5095643;28;20262;-69
2022/07/11 07:02:16;;;;;;;4.15;3.85;;;16.50;99.90;;;;;;5095035;28;20513;-68
2022/07/11 07:04:42;;;;;;;4.13;3.83;;;16.50;99.90;;;;;;5093762;28;20223;-68
2022/07/11 07:07:07;;;;;;;6.05;5.07;;;16.60;99.90;;;;;;5094816;28;20208;-68
2022/07/11 07:09:33;;;;;;;6.40;5.80;;;16.70;99.90;;;;;;5095374;28;20227;-68
2022/07/11 07:11:59;;;;;;;8.43;6.70;;;16.80;99.90;;;;;;5094899;28;20180;-68
2022/07/11 07:14:25;;;;;;;5.60;5.05;;;16.80;99.90;;;;;;5094755;28;20165;-69
2022/07/11 07:16:50;;;;;;;4.25;3.95;;;16.80;99.90;;;;;;5095308;28;20214;-68
2022/07/11 07:19:16;;;;;;;3.13;2.88;;;16.80;99.90;;;;;;5093982;28;20269;-68
2022/07/11 07:21:42;;;;;;;3.10;2.80;;;16.80;99.90;;;;;;5094220;28;20201;-68
2022/07/11 07:24:07;;;;;;;3.08;2.80;;;16.80;99.90;;;;;;5094787;28;20201;-68
2022/07/11 07:26:33;;;;;;;2.60;2.40;;;16.80;99.90;;;;;;5094483;28;20607;-68
2022/07/11 07:28:59;;;;;;;3.40;2.40;;;16.80;99.90;;;;;;5094185;28;20193;-68
2022/07/11 07:31:25;;;;;;;2.50;2.30;;;16.80;99.90;;;;;;5094738;28;20165;-68
2022/07/11 07:33:51;;;;;;;2.30;2.20;;;16.80;99.90;;;;;;5094444;28;20200;-68
2022/07/11 07:36:16;;;;;;;2.75;2.40;;;16.90;99.90;;;;;;5094845;28;20210;-68
2022/07/11 07:38:46;;;;;;;2.22;1.88;;;16.90;99.90;;;;;;5094561;28;20246;-68
2022/07/11 07:41:12;;;;;;;2.25;2.03;;;16.90;99.90;;;;;;5094666;28;20192;-68
2022/07/11 07:43:39;;;;;;;2.33;2.00;;;17.00;99.90;;;;;;5094225;28;20197;-68
2022/07/11 07:46:05;;;;;;;1.90;1.80;;;17.00;99.90;;;;;;5092906;28;20177;-68
2022/07/11 07:48:31;;;;;;;2.00;1.90;;;17.10;99.90;;;;;;5092785;28;20573;-69
2022/07/11 07:50:56;;;;;;;3.35;1.77;;;17.10;99.90;;;;;;5093080;28;20171;-68
2022/07/11 07:53:22;;;;;;;1.80;1.70;;;17.10;99.90;;;;;;5094450;28;20217;-68
2022/07/11 07:55:49;;;;;;;1.60;1.50;;;17.10;99.90;;;;;;5094069;28;20173;-68
2022/07/11 07:58:15;;;;;;;2.03;1.80;;;17.10;99.90;;;;;;5093852;28;20545;-68
2022/07/11 08:03:25;;;;;;;2.63;1.63;;;17.10;99.90;;;;;;5094066;28;20164;-68
2022/07/11 08:05:50;;;;;;;2.00;1.90;;;17.10;99.90;;;;;;5094450;28;20170;-68
2022/07/11 08:08:16;;;;;;;1.88;1.77;;;17.20;99.90;;;;;;5093831;28;20673;-68
2022/07/11 08:10:42;;;;;;;3.22;2.25;;;17.20;99.90;;;;;;5093662;28;20220;-68
2022/07/11 08:13:08;;;;;;;1.90;1.80;;;17.20;99.90;;;;;;5093883;28;20180;-68
2022/07/11 08:15:34;;;;;;;2.05;1.95;;;17.20;99.90;;;;;;5093710;28;20180;-68
2022/07/11 08:18:00;;;;;;;3.15;2.50;;;17.30;99.90;;;;;;5093536;28;20199;-68
2022/07/11 08:20:26;;;;;;;2.47;2.28;;;17.40;99.90;;;;;;5093693;28;20228;-68
2022/07/11 08:22:51;;;;;;;2.53;1.90;;;17.50;99.90;;;;;;5093715;28;20253;-68
2022/07/11 08:25:17;;;;;;;2.42;1.92;;;17.50;99.90;;;;;;5093778;28;20267;-68
2022/07/11 08:27:43;;;;;;;2.00;1.90;;;17.60;99.90;;;;;;5093607;28;20208;-68
2022/07/11 08:30:09;;;;;;;1.80;1.70;;;17.60;99.90;;;;;;5093659;28;20189;-68
2022/07/11 08:32:40;;;;;;;1.90;1.80;;;17.70;99.90;;;;;;5099351;28;20173;-68
2022/07/11 08:35:06;;;;;;;2.83;2.63;;;17.70;99.90;;;;;;5100645;28;20502;-68
2022/07/11 08:37:32;;;;;;;3.78;3.45;;;17.70;99.90;;;;;;5100419;28;20201;-68
2022/07/11 08:39:58;;;;;;;4.00;3.60;;;17.70;99.90;;;;;;5100884;28;20200;-68
2022/07/11 08:42:28;;;;;;;4.65;3.28;;;17.60;99.90;;;;;;5100472;28;20669;-68
2022/07/11 08:44:57;;;;;;;4.75;2.92;;;17.60;99.90;;;;;;5100741;28;20165;-68
2022/07/11 08:47:24;;;;;;;2.97;2.78;;;17.60;99.90;;;;;;5100202;28;20208;-68
2022/07/11 08:49:51;;;;;;;3.78;3.50;;;17.50;99.90;;;;;;5100262;28;20257;-68
2022/07/11 08:52:19;;;;;;;6.30;5.63;;;17.40;99.90;;;;;;5100593;28;20173;-68
2022/07/11 08:54:45;;;;;;;5.57;4.97;;;17.30;99.90;;;;;;5100361;28;20168;-68
2022/07/11 08:57:13;;;;;;;7.25;5.38;;;17.40;99.90;;;;;;5098895;28;20185;-68
2022/07/11 08:59:43;;;;;;;5.95;5.40;;;17.40;99.90;;;;;;5099884;28;20185;-68
2022/07/11 09:02:12;;;;;;;5.85;5.35;;;17.50;99.90;;;;;;5100022;28;20694;-68
2022/07/11 09:04:38;;;;;;;5.85;5.22;;;17.60;99.90;;;;;;5100083;28;20641;-68
2022/07/11 09:07:04;;;;;;;5.25;4.85;;;17.60;99.90;;;;;;5100185;28;20197;-68
2022/07/11 09:09:30;;;;;;;4.68;4.28;;;17.70;99.90;;;;;;5100120;28;20193;-67
2022/07/11 09:11:57;;;;;;;7.53;4.60;;;17.70;99.90;;;;;;5100042;28;20538;-68
2022/07/11 09:14:31;;;;;;;5.72;4.40;;;17.60;99.90;;;;;;5098477;28;20542;-68
2022/07/11 09:16:58;;;;;;;5.28;4.03;;;17.50;99.90;;;;;;5100266;28;20169;-69
2022/07/11 09:19:33;;;;;;;3.72;3.42;;;17.30;99.90;;;;;;5099932;28;20696;-68
2022/07/11 09:27:46;;;;;;;4.93;3.72;;;17.50;99.90;;;;;;5100122;28;20276;-68
2022/07/11 09:30:21;;;;;;;3.28;2.97;;;17.60;99.90;;;;;;5099971;28;20548;-68
2022/07/11 09:32:57;;;;;;;3.63;3.33;;;17.70;99.90;;;;;;5098789;28;20633;-68
2022/07/11 09:35:28;;;;;;;3.38;3.08;;;17.90;99.90;;;;;;5098848;28;20203;-68
2022/07/11 09:37:54;;;;;;;4.38;3.45;;;18.10;99.90;;;;;;5098754;28;20184;-68
2022/07/11 09:40:25;;;;;;;4.15;3.80;;;18.30;99.90;;;;;;5100131;28;20200;-68
2022/07/11 09:42:52;;;;;;;4.72;4.22;;;18.60;99.90;;;;;;5096117;28;20178;-69
2022/07/11 09:45:24;;;;;;;5.70;4.20;;;18.80;99.90;;;;;;5096944;28;20181;-68
2022/07/11 09:47:51;;;;;;;4.90;4.32;;;19.00;99.90;;;;;;5096768;28;20556;-68
2022/07/11 09:50:19;;;;;;;4.57;4.18;;;19.10;99.90;;;;;;5096330;28;20200;-68
2022/07/11 09:52:59;;;;;;;5.25;4.65;;;19.10;99.90;;;;;;5095339;28;20173;-68
2022/07/11 09:55:26;;;;;;;4.35;3.95;;;19.10;99.90;;;;;;5097736;28;20176;-68
2022/07/11 09:57:52;;;;;;;8.80;4.65;;;18.90;99.90;;;;;;5098681;28;20181;-69
2022/07/11 10:00:18;;;;;;;4.97;4.43;;;18.90;99.90;;;;;;5099515;28;20204;-68
2022/07/11 10:02:45;;;;;;;5.32;4.80;;;18.70;99.90;;;;;;5095907;28;20613;-68
2022/07/11 10:05:11;;;;;;;5.00;4.45;;;18.60;99.90;;;;;;5095137;28;20556;-68
2022/07/11 10:07:37;;;;;;;5.25;4.47;;;18.60;99.90;;;;;;5096188;28;20196;-68
2022/07/11 10:10:05;;;;;;;4.60;3.72;;;18.40;99.90;;;;;;5094958;28;20768;-68
2022/07/11 10:12:32;;;;;;;4.47;3.90;;;18.20;99.90;;;;;;5096211;28;20261;-68
2022/07/11 10:15:04;;;;;;;3.53;3.22;;;17.90;99.90;;;;;;5095907;28;20196;-68
2022/07/11 10:17:42;;;;;;;3.88;3.55;;;17.80;99.90;;;;;;5096317;28;20185;-68
2022/07/11 10:20:34;;;;;;;5.40;3.95;;;17.70;99.90;;;;;;5111201;28;20241;-68
2022/07/11 10:23:27;;;;;;;4.18;3.83;;;17.60;99.90;;;;;;5115253;28;20263;-68
2022/07/11 10:26:23;;;;;;;5.93;4.53;;;17.60;99.90;;;;;;5115144;28;20547;-68
2022/07/11 10:29:05;;;;;;;5.25;4.15;;;17.70;99.90;;;;;;5114849;28;20567;-68
2022/07/11 10:31:31;;;;;;;5.68;4.80;;;17.80;99.90;;;;;;5116531;28;20161;-70
2022/07/11 10:34:02;;;;;;;4.90;4.45;;;18.00;99.90;;;;;;5114714;28;20663;-70
2022/07/11 10:36:29;;;;;;;4.75;4.35;;;18.10;99.90;;;;;;5114895;28;20176;-70
2022/07/11 10:39:29;;;;;;;5.72;4.97;;;18.20;99.90;;;;;;5115926;28;20189;-70
2022/07/11 10:41:56;;;;;;;7.30;5.18;;;18.30;99.90;;;;;;5116374;28;20165;-70
2022/07/11 10:44:22;;;;;;;5.20;4.70;;;18.40;99.90;;;;;;5115710;28;20648;-70
2022/07/11 10:46:48;;;;;;;4.30;3.90;;;18.50;99.90;;;;;;5116239;28;20200;-70
2022/07/11 10:49:17;;;;;;;4.93;3.85;;;18.50;99.90;;;;;;5108231;28;20665;-70
2022/07/11 10:52:02;;;;;;;2.85;2.65;;;18.50;99.90;;;;;;5095776;28;20173;-70
2022/07/11 10:54:42;;;;;;;3.47;2.80;;;18.40;99.90;;;;;;5093850;28;20180;-70
2022/07/11 10:57:26;;;;;;;3.20;2.90;;;18.50;99.90;;;;;;5095292;28;20172;-70
2022/07/11 11:00:15;;;;;;;2.70;2.50;;;18.40;99.90;;;;;;5095049;28;20196;-70
2022/07/11 11:03:01;;;;;;;3.03;2.72;;;18.40;99.90;;;;;;5094613;28;20245;-70
2022/07/11 11:05:50;;;;;;;4.10;3.30;;;18.50;99.90;;;;;;5095756;28;20630;-70
2022/07/11 11:08:35;;;;;;;6.57;5.05;;;18.40;99.90;;;;;;5095963;28;20531;-70
2022/07/11 11:11:01;;;;;;;5.38;4.43;;;18.40;99.90;;;;;;5094016;28;20549;-70
2022/07/11 11:13:28;;;;;;;5.70;4.57;;;18.30;99.90;;;;;;5093796;28;20558;-70
2022/07/11 11:15:55;;;;;;;7.13;5.13;;;18.40;99.90;;;;;;5096823;28;20166;-70
2022/07/11 11:18:24;;;;;;;4.55;3.83;;;18.40;99.90;;;;;;5095153;28;20220;-70
2022/07/11 11:20:59;;;;;;;4.80;4.35;;;18.40;99.90;;;;;;5094675;28;20560;-70
2022/07/11 11:23:27;;;;;;;6.15;5.55;;;18.40;99.90;;;;;;5094470;28;20180;-70
2022/07/11 11:25:53;;;;;;;5.43;4.53;;;18.40;99.90;;;;;;5094857;28;20311;-70
2022/07/11 11:28:22;;;;;;;5.85;5.28;;;18.40;99.90;;;;;;5093218;28;20291;-70
2022/07/11 11:30:55;;;;;;;6.30;4.68;;;18.40;99.90;;;;;;5094912;28;20541;-70
2022/07/11 11:33:24;;;;;;;6.00;5.40;;;18.50;99.90;;;;;;5094675;28;20306;-70
2022/07/11 11:36:03;;;;;;;6.00;5.40;;;18.40;99.90;;;;;;5094761;28;20626;-70
2022/07/11 11:38:32;;;;;;;5.82;4.80;;;18.30;99.90;;;;;;5094958;28;20173;-70
2022/07/11 11:40:58;;;;;;;4.50;4.10;;;18.30;99.90;;;;;;5093184;28;20553;-70
2022/07/11 11:43:25;;;;;;;3.63;3.00;;;18.30;99.90;;;;;;5092984;28;20180;-70
2022/07/11 11:45:52;;;;;;;4.43;3.40;;;18.30;99.90;;;;;;5094241;28;20180;-70
2022/07/11 11:48:32;;;;;;;3.20;2.90;;;18.30;99.90;;;;;;5093051;28;20570;-70
2022/07/11 11:51:08;;;;;;;4.93;4.38;;;18.30;99.90;;;;;;5092975;28;20310;-70
2022/07/11 11:53:39;;;;;;;5.05;4.55;;;18.40;99.90;;;;;;5094519;28;20153;-70
2022/07/11 11:56:36;;;;;;;5.80;5.20;;;18.30;99.90;;;;;;5092903;28;20175;-70
2022/07/11 11:59:01;;;;;;;5.15;4.63;;;18.30;99.90;;;;;;5091512;28;20212;-70
2022/07/11 12:01:31;;;;;;;5.15;4.50;;;18.30;99.90;;;;;;5093991;28;20538;-70
2022/07/11 12:03:59;;;;;;;8.88;7.82;;;18.30;99.90;;;;;;5093931;28;20173;-70
2022/07/11 12:06:31;;;;;;;10.40;9.40;;;18.30;99.90;;;;;;5093402;28;20177;-70
2022/07/11 12:09:00;;;;;;;11.98;10.88;;;18.30;99.90;;;;;;5093923;28;20296;-70
2022/07/11 12:11:26;;;;;;;11.80;10.70;;;18.30;99.90;;;;;;5093953;28;20640;-70
2022/07/11 12:14:00;;;;;;;10.50;9.43;;;18.30;99.90;;;;;;5093541;28;20173;-70
2022/07/11 12:16:39;;;;;;;6.80;6.07;;;18.50;99.90;;;;;;5092624;28;20177;-70
2022/07/11 12:19:07;;;;;;;9.32;5.75;;;18.70;99.90;;;;;;5100283;28;20580;-70
2022/07/11 12:21:34;;;;;;;5.22;4.72;;;18.90;99.90;;;;;;5114165;28;20277;-70
2022/07/11 12:24:03;;;;;;;7.45;5.82;;;19.00;99.90;;;;;;5114693;28;20605;-70
2022/07/11 12:26:32;;;;;;;7.00;6.30;;;19.10;99.90;;;;;;5112755;28;20181;-70
2022/07/11 12:29:19;;;;;;;6.55;5.95;;;19.40;99.90;;;;;;5114069;28;20219;-70
2022/07/11 12:31:59;;;;;;;6.38;5.32;;;19.60;99.90;;;;;;5112804;28;20709;-70
2022/07/11 12:34:42;;;;;;;6.10;4.97;;;20.20;99.90;;;;;;5113946;28;20202;-70
2022/07/11 12:37:18;;;;;;;7.05;5.15;;;20.60;99.90;;;;;;5114241;28;20167;-70
2022/07/11 12:39:56;;;;;;;5.72;5.13;;;21.10;99.90;;;;;;5113872;28;20199;-70
2022/07/11 12:42:24;;;;;;;5.22;4.15;;;21.50;99.90;;;;;;5113894;28;20160;-70
2022/07/11 12:44:59;;;;;;;4.00;3.63;;;22.00;99.90;;;;;;5113748;28;20225;-70
2022/07/11 12:47:28;;;;;;;3.30;3.00;;;22.60;99.90;;;;;;5113892;28;20217;-70
2022/07/11 12:49:55;;;;;;;3.33;2.85;;;22.80;99.90;;;;;;5113719;28;20200;-70
2022/07/11 12:52:22;;;;;;;3.30;2.88;;;22.70;99.90;;;;;;5113850;28;20168;-70
2022/07/11 12:54:49;;;;;;;3.00;2.70;;;22.20;99.90;;;;;;5112502;28;20182;-70
2022/07/11 12:57:20;;;;;;;3.67;2.20;;;21.80;99.90;;;;;;5112912;28;20293;-70
2022/07/11 12:59:46;;;;;;;3.17;2.30;;;21.60;99.90;;;;;;5114117;28;20191;-70
2022/07/11 13:02:13;;;;;;;2.65;2.45;;;21.30;99.90;;;;;;5114352;28;20248;-70